Time;durP1;ratioP1;P1;durP2;ratioP2;P2;SDS_P1;SDS_P2;PMS_P1;PMS_P2;Temp;Humidity;BMP_temperature;BMP_pressure;BME280_temperature;BME280_humidity;BME280_pressure;Samples;Min_cycle;Max_cycle;Signal;HPM_P1;HPM_P2
2023/02/15 00:01:55;;;;;;;27.80;17.30;;;;;;;0.09;99.53;102271.14;107326;1259;69972;-77
2023/02/15 00:04:24;;;;;;;28.70;18.60;;;;;;;0.07;99.66;102266.20;107784;1255;72655;-76
2023/02/15 00:06:51;;;;;;;30.50;18.20;;;;;;;0.05;99.57;102263.48;107554;1255;60672;-77
2023/02/15 00:09:18;;;;;;;34.50;19.50;;;;;;;0.04;99.69;102267.89;107483;1255;61804;-75
2023/02/15 00:11:51;;;;;;;29.50;18.60;;;;;;;0.01;99.57;102264.02;107649;1256;75210;-75
2023/02/15 00:14:23;;;;;;;35.80;19.90;;;;;;;0.02;99.98;102264.14;107757;1257;71653;-74
2023/02/15 00:16:52;;;;;;;34.70;19.00;;;;;;;0.03;99.99;102262.70;107461;1255;73770;-76
2023/02/15 00:19:20;;;;;;;35.00;20.80;;;;;;;0.04;99.98;102260.21;107392;1256;62122;-76
2023/02/15 00:21:48;;;;;;;32.60;19.70;;;;;;;0.07;100.00;102258.01;107589;1260;61167;-75
2023/02/15 00:24:17;;;;;;;32.90;19.50;;;;;;;0.08;100.00;102256.21;107683;1260;75636;-75
2023/02/15 00:26:44;;;;;;;32.60;19.20;;;;;;;0.10;100.00;102254.20;107326;1256;70153;-75
2023/02/15 00:29:13;;;;;;;33.90;19.60;;;;;;;0.11;100.00;102251.04;107452;1256;72797;-78
2023/02/15 00:31:40;;;;;;;33.50;19.70;;;;;;;0.11;100.00;102250.49;107564;1256;61979;-75
2023/02/15 00:34:20;;;;;;;32.50;19.70;;;;;;;0.11;100.00;102250.17;107741;1257;61542;-75
2023/02/15 00:36:48;;;;;;;33.00;19.60;;;;;;;0.10;99.99;102245.67;107531;1260;75654;-76
2023/02/15 00:39:15;;;;;;;33.00;19.30;;;;;;;0.12;100.00;102243.69;107492;1259;71574;-82
2023/02/15 00:41:42;;;;;;;31.70;20.10;;;;;;;0.13;100.00;102241.73;107576;1257;72423;-75
2023/02/15 00:44:09;;;;;;;44.60;25.10;;;;;;;0.12;100.00;102241.58;107781;1257;61218;-76
2023/02/15 00:46:36;;;;;;;36.00;20.80;;;;;;;0.13;100.00;102237.04;107611;1256;61200;-76
2023/02/15 00:49:04;;;;;;;41.50;23.60;;;;;;;0.15;100.00;102233.43;107380;1260;74713;-76
2023/02/15 00:51:43;;;;;;;42.00;24.00;;;;;;;0.18;100.00;102228.79;108445;1258;71228;-77
2023/02/15 00:54:10;;;;;;;45.20;26.50;;;;;;;0.21;100.00;102225.52;108888;1257;71566;-75
2023/02/15 00:56:37;;;;;;;36.60;21.90;;;;;;;0.25;100.00;102222.23;108798;1257;60503;-75
2023/02/15 00:59:04;;;;;;;37.40;21.70;;;;;;;0.28;100.00;102222.60;108989;1255;59336;-75
2023/02/15 01:01:30;;;;;;;34.60;20.50;;;;;;;0.31;100.00;102222.95;108797;1255;74669;-75
2023/02/15 01:03:57;;;;;;;34.20;18.40;;;;;;;0.31;100.00;102221.39;108762;1260;68936;-75
2023/02/15 01:06:24;;;;;;;31.20;17.90;;;;;;;0.32;100.00;102220.34;108343;1257;71381;-76
2023/02/15 01:08:51;;;;;;;29.60;17.80;;;;;;;0.33;100.00;102217.13;108411;1257;60549;-77
2023/02/15 01:11:24;;;;;;;27.00;17.60;;;;;;;0.36;100.00;102217.54;107455;1257;61292;-77
2023/02/15 01:13:56;;;;;;;28.80;17.60;;;;;;;0.36;100.00;102215.59;107397;1256;73574;-77
2023/02/15 01:16:24;;;;;;;30.50;18.50;;;;;;;0.38;100.00;102220.22;108143;1257;70908;-77
2023/02/15 01:18:52;;;;;;;27.90;17.30;;;;;;;0.34;100.00;102220.20;107933;1257;72925;-77
2023/02/15 01:21:21;;;;;;;26.20;16.70;;;;;;;0.30;99.85;102217.65;108384;1257;61636;-75
2023/02/15 01:23:48;;;;;;;24.50;15.80;;;;;;;0.24;99.39;102215.27;108376;1258;60615;-74
2023/02/15 01:26:16;;;;;;;25.70;16.10;;;;;;;0.19;99.31;102219.19;108381;1260;74000;-74
2023/02/15 01:28:43;;;;;;;32.40;16.40;;;;;;;0.17;99.42;102218.60;107915;1261;68658;-75
2023/02/15 01:31:12;;;;;;;25.70;16.40;;;;;;;0.15;99.87;102214.48;107909;1257;71118;-75
2023/02/15 01:33:40;;;;;;;27.20;16.30;;;;;;;0.14;99.95;102215.96;108193;1255;60277;-75
2023/02/15 01:36:07;;;;;;;25.80;15.60;;;;;;;0.13;99.99;102214.77;108416;1255;59368;-75
2023/02/15 01:38:35;;;;;;;26.20;16.30;;;;;;;0.13;100.00;102214.25;108879;1260;74679;-75
2023/02/15 01:41:24;;;;;;;26.70;16.90;;;;;;;0.12;100.00;102210.83;108740;1255;71858;-76
2023/02/15 01:43:57;;;;;;;27.40;16.20;;;;;;;0.12;100.00;102211.84;108094;1255;74175;-75
2023/02/15 01:46:26;;;;;;;28.10;16.70;;;;;;;0.12;100.00;102206.27;108380;1256;61291;-75
2023/02/15 01:49:00;;;;;;;25.60;16.40;;;;;;;0.13;100.00;102201.73;107893;1256;61154;-76
2023/02/15 01:51:31;;;;;;;24.70;16.30;;;;;;;0.12;100.00;102198.61;107681;1257;74627;-75
2023/02/15 01:54:17;;;;;;;21.90;15.20;;;;;;;0.13;100.00;102197.73;108195;1257;71837;-77
2023/02/15 01:56:44;;;;;;;22.60;14.70;;;;;;;0.13;99.99;102197.38;108177;1257;72484;-75
2023/02/15 01:59:16;;;;;;;24.30;15.40;;;;;;;0.12;100.00;102191.69;107968;1261;60936;-76
2023/02/15 02:01:44;;;;;;;21.40;14.70;;;;;;;0.11;99.98;102190.00;107851;1257;60227;-76
2023/02/15 02:04:17;;;;;;;22.60;14.30;;;;;;;0.10;100.00;102187.73;108007;1258;76198;-77
2023/02/15 02:06:47;;;;;;;21.80;13.90;;;;;;;0.09;100.00;102184.33;107425;1259;69733;-76
2023/02/15 02:09:14;;;;;;;22.00;13.90;;;;;;;0.08;100.00;102184.72;107806;1257;73369;-76
2023/02/15 02:11:46;;;;;;;22.00;14.40;;;;;;;0.06;99.98;102180.83;107747;1257;60060;-77
2023/02/15 02:14:13;;;;;;;20.10;13.10;;;;;;;0.04;99.89;102176.21;107758;1256;61260;-74
2023/02/15 02:16:52;;;;;;;24.00;15.50;;;;;;;-0.01;99.66;102165.98;107939;1256;73953;-74
2023/02/15 02:19:19;;;;;;;22.70;14.50;;;;;;;-0.04;99.84;102164.55;107514;1256;71025;-75
2023/02/15 02:21:58;;;;;;;24.90;15.50;;;;;;;-0.06;99.92;102163.77;107702;1257;70274;-78
2023/02/15 02:24:50;;;;;;;23.40;14.30;;;;;;;-0.09;100.00;102162.00;107710;1258;61624;-76
2023/02/15 02:27:49;;;;;;;23.00;15.00;;;;;;;-0.11;100.00;102157.55;107313;1258;61637;-76
2023/02/15 02:30:19;;;;;;;21.90;14.10;;;;;;;-0.13;99.98;102155.79;107523;1257;74662;-76
2023/02/15 02:33:08;;;;;;;22.50;13.90;;;;;;;-0.16;99.97;102157.29;107762;1256;71695;-76
2023/02/15 02:35:49;;;;;;;24.50;15.00;;;;;;;-0.17;99.99;102154.23;107593;1257;72852;-76
2023/02/15 02:38:18;;;;;;;24.30;15.20;;;;;;;-0.19;100.00;102149.05;107379;1257;62147;-81
2023/02/15 02:40:57;;;;;;;25.20;15.20;;;;;;;-0.20;100.00;102152.07;107560;1257;59227;-75
2023/02/15 02:43:33;;;;;;;24.00;14.90;;;;;;;-0.21;100.00;102149.84;107439;1257;74790;-76
2023/02/15 02:46:11;;;;;;;28.40;15.40;;;;;;;-0.20;100.00;102141.64;107862;1257;70098;-76
2023/02/15 02:48:39;;;;;;;23.50;14.40;;;;;;;-0.17;100.00;102138.39;108064;1257;73095;-75
2023/02/15 02:51:06;;;;;;;26.10;15.40;;;;;;;-0.15;100.00;102138.14;107640;1257;61370;-76
2023/02/15 02:53:34;;;;;;;25.70;15.40;;;;;;;-0.11;100.00;102134.46;107908;1256;61305;-75
2023/02/15 02:56:17;;;;;;;25.20;14.90;;;;;;;-0.06;100.00;102132.66;107796;1259;75581;-75
2023/02/15 02:59:25;;;;;;;24.90;14.10;;;;;;;0.05;100.00;102130.60;107644;1257;70557;-75
2023/02/15 03:02:01;;;;;;;26.90;15.60;;;;;;;0.15;100.00;102125.94;107418;1255;70182;-76
2023/02/15 03:04:38;;;;;;;24.80;14.70;;;;;;;0.23;100.00;102119.83;107477;1256;61914;-77
2023/02/15 03:07:09;;;;;;;26.50;14.90;;;;;;;0.28;100.00;102116.09;107472;1257;62030;-76
2023/02/15 03:09:46;;;;;;;24.80;15.00;;;;;;;0.34;100.00;102115.12;107400;1256;74566;-76
2023/02/15 03:12:21;;;;;;;24.50;14.90;;;;;;;0.39;100.00;102111.55;107770;1257;71089;-77
2023/02/15 03:14:54;;;;;;;27.10;15.20;;;;;;;0.46;100.00;102112.29;107443;1257;72741;-76
2023/02/15 03:17:24;;;;;;;26.50;15.30;;;;;;;0.51;100.00;102109.42;107717;1257;61240;-77
2023/02/15 03:19:55;;;;;;;25.50;15.00;;;;;;;0.55;100.00;102103.84;107723;1257;61416;-77
2023/02/15 03:22:30;;;;;;;26.90;15.40;;;;;;;0.60;100.00;102103.05;107767;1254;73871;-77
2023/02/15 03:25:02;;;;;;;26.80;15.20;;;;;;;0.64;100.00;102109.82;107895;1256;70951;-76
2023/02/15 03:27:39;;;;;;;26.40;15.70;;;;;;;0.70;100.00;102102.08;107383;1257;71409;-76
2023/02/15 03:30:11;;;;;;;27.00;15.70;;;;;;;0.74;100.00;102100.45;107677;1256;61840;-75
2023/02/15 03:32:40;;;;;;;28.60;16.40;;;;;;;0.79;100.00;102102.47;107559;1256;61531;-77
2023/02/15 03:35:16;;;;;;;24.30;15.00;;;;;;;0.82;100.00;102097.81;107394;1257;75014;-77
2023/02/15 03:37:50;;;;;;;30.30;16.90;;;;;;;0.86;100.00;102094.85;107341;1257;69716;-78
2023/02/15 03:43:19;;;;;;;25.40;15.60;;;;;;;0.95;100.00;102094.17;107747;1257;61285;-78
2023/02/15 03:45:55;;;;;;;24.70;15.30;;;;;;;0.97;100.00;102089.54;107934;1259;61691;-77
2023/02/15 03:48:26;;;;;;;25.90;15.40;;;;;;;1.01;100.00;102088.48;107754;1257;76344;-77
2023/02/15 03:53:46;;;;;;;26.60;15.10;;;;;;;1.08;100.00;102086.70;107764;1257;74244;-78
2023/02/15 03:56:13;;;;;;;24.90;14.60;;;;;;;1.12;100.00;102083.22;107518;1257;61139;-79
2023/02/15 04:01:58;;;;;;;26.30;15.70;;;;;;;1.17;100.00;102090.61;107682;1257;74456;-77
2023/02/15 04:04:37;;;;;;;27.90;15.70;;;;;;;1.19;100.00;102095.91;107458;1259;71295;-78
2023/02/15 04:07:06;;;;;;;26.00;15.20;;;;;;;1.21;100.00;102098.61;108042;1256;71123;-78
2023/02/15 04:12:20;;;;;;;24.30;14.70;;;;;;;1.22;100.00;102095.23;107720;1257;61201;-78
2023/02/15 04:17:33;;;;;;;24.70;15.80;;;;;;;1.24;100.00;102088.86;107477;1256;69953;-77
2023/02/15 04:25:30;;;;;;;25.50;15.80;;;;;;;1.29;100.00;102085.80;107553;1257;61278;-77
2023/02/15 04:27:57;;;;;;;27.30;15.50;;;;;;;1.31;100.00;102081.54;107262;1257;73419;-76
2023/02/15 04:30:26;;;;;;;26.70;14.60;;;;;;;1.32;100.00;102075.91;107630;1256;71647;-77
2023/02/15 04:32:54;;;;;;;24.40;15.10;;;;;;;1.33;100.00;102070.95;107251;1256;72731;-77
2023/02/15 04:35:22;;;;;;;24.50;15.70;;;;;;;1.34;100.00;102075.25;107652;1257;60932;-77
2023/02/15 04:37:49;;;;;;;24.20;15.00;;;;;;;1.34;100.00;102069.16;107663;1257;61105;-78
2023/02/15 04:40:16;;;;;;;24.80;15.60;;;;;;;1.33;100.00;102064.70;107626;1257;73451;-79
2023/02/15 04:42:48;;;;;;;23.80;14.50;;;;;;;1.33;100.00;102065.20;107466;1256;69772;-76
2023/02/15 04:45:15;;;;;;;24.70;15.30;;;;;;;1.33;100.00;102067.15;107607;1256;72925;-77
2023/02/15 04:47:43;;;;;;;23.50;14.80;;;;;;;1.33;100.00;102068.86;107813;1256;62246;-78
2023/02/15 04:50:10;;;;;;;25.10;15.20;;;;;;;1.34;100.00;102069.02;107350;1256;60078;-76
2023/02/15 04:52:37;;;;;;;24.80;15.70;;;;;;;1.34;100.00;102062.20;107342;1256;74466;-78
2023/02/15 04:55:04;;;;;;;25.80;15.30;;;;;;;1.34;100.00;102062.03;107499;1256;70065;-79
2023/02/15 04:57:34;;;;;;;27.00;16.30;;;;;;;1.35;100.00;102061.27;107297;1256;72413;-78
2023/02/15 05:00:01;;;;;;;25.50;15.50;;;;;;;1.36;100.00;102061.73;107737;1255;61855;-81
2023/02/15 05:02:29;;;;;;;24.80;15.90;;;;;;;1.38;100.00;102059.02;107565;1256;61359;-80
2023/02/15 05:04:56;;;;;;;23.60;15.30;;;;;;;1.38;100.00;102058.48;107634;1255;73951;-79
2023/02/15 05:07:23;;;;;;;26.30;15.80;;;;;;;1.38;100.00;102056.05;107756;1257;69821;-79
2023/02/15 05:09:50;;;;;;;25.30;15.70;;;;;;;1.39;100.00;102048.01;107784;1255;71405;-77
2023/02/15 05:12:17;;;;;;;25.60;15.70;;;;;;;1.39;100.00;102050.80;107723;1256;60958;-79
2023/02/15 05:14:44;;;;;;;24.50;15.10;;;;;;;1.38;100.00;102046.11;107458;1255;61113;-78
2023/02/15 05:17:11;;;;;;;24.70;15.20;;;;;;;1.37;100.00;102042.50;107516;1257;75162;-77
2023/02/15 05:19:38;;;;;;;24.60;15.80;;;;;;;1.37;100.00;102041.13;107668;1257;71094;-77
2023/02/15 05:22:05;;;;;;;25.00;16.10;;;;;;;1.36;100.00;102038.72;108675;1256;73099;-77
2023/02/15 05:30:05;;;;;;;25.90;15.80;;;;;;;1.37;100.00;102047.77;107767;1257;75515;-77
2023/02/15 05:32:32;;;;;;;23.20;15.20;;;;;;;1.37;100.00;102047.40;108029;1258;71625;-76
2023/02/15 05:35:00;;;;;;;23.70;15.20;;;;;;;1.38;100.00;102050.31;107843;1255;72815;-76
2023/02/15 05:37:27;;;;;;;22.30;15.00;;;;;;;1.39;100.00;102048.49;107953;1255;61250;-76
2023/02/15 05:39:55;;;;;;;25.90;14.80;;;;;;;1.41;100.00;102050.31;107851;1256;59351;-79
2023/02/15 05:42:22;;;;;;;25.50;15.40;;;;;;;1.42;100.00;102044.34;107953;1257;72440;-76
2023/02/15 05:44:49;;;;;;;23.90;14.80;;;;;;;1.41;99.94;102047.34;108040;1257;70841;-77
2023/02/15 05:47:16;;;;;;;23.70;15.30;;;;;;;1.41;99.77;102052.23;107563;1257;630620;-76
2023/02/15 05:49:43;;;;;;;23.00;14.40;;;;;;;1.40;99.73;102045.84;107708;1256;61274;-76
2023/02/15 05:52:11;;;;;;;23.40;14.70;;;;;;;1.39;99.47;102045.90;107870;1255;59227;-76
2023/02/15 05:54:39;;;;;;;23.00;15.10;;;;;;;1.38;99.56;102039.13;107566;1256;74484;-78
2023/02/15 05:57:05;;;;;;;21.70;14.20;;;;;;;1.39;99.84;102041.71;107957;1255;69675;-77
2023/02/15 05:59:33;;;;;;;24.10;14.80;;;;;;;1.40;99.49;102041.67;107944;1255;72383;-75
2023/02/15 06:01:59;;;;;;;22.80;14.50;;;;;;;1.39;99.37;102039.27;107564;1257;59888;-78
2023/02/15 06:04:26;;;;;;;24.70;15.40;;;;;;;1.39;99.49;102039.42;107633;1257;60438;-76
2023/02/15 06:06:53;;;;;;;22.10;14.40;;;;;;;1.39;99.11;102034.21;107898;1256;74891;-75
2023/02/15 06:09:20;;;;;;;22.80;14.00;;;;;;;1.39;99.02;102037.01;107851;1260;70673;-76
2023/02/15 06:11:50;;;;;;;21.50;14.20;;;;;;;1.38;99.03;102036.20;107857;1257;72335;-77
2023/02/15 06:14:17;;;;;;;21.90;13.30;;;;;;;1.38;98.92;102035.66;108013;1256;61711;-78
2023/02/15 06:16:44;;;;;;;22.80;13.90;;;;;;;1.37;98.60;102036.79;107679;1255;60385;-78
2023/02/15 06:19:11;;;;;;;22.70;13.70;;;;;;;1.35;98.72;102036.34;107646;1255;74610;-78
2023/02/15 06:21:38;;;;;;;21.60;13.80;;;;;;;1.33;98.48;102035.91;107588;1257;69648;-78
2023/02/15 06:24:08;;;;;;;23.60;15.00;;;;;;;1.33;98.47;102030.55;107641;1256;71551;-80
2023/02/15 06:26:38;;;;;;;22.70;14.10;;;;;;;1.35;98.53;102030.27;107931;1255;60895;-81
2023/02/15 06:29:07;;;;;;;21.10;13.70;;;;;;;1.38;98.61;102030.42;108185;1256;59684;-80
2023/02/15 06:31:34;;;;;;;20.00;13.20;;;;;;;1.42;98.53;102030.05;107959;1255;75451;-81
2023/02/15 06:34:01;;;;;;;22.10;14.70;;;;;;;1.45;98.13;102029.36;107257;1257;71021;-79
2023/02/15 06:36:29;;;;;;;20.50;13.50;;;;;;;1.48;97.85;102032.52;107049;1255;71247;-79
2023/02/15 06:38:56;;;;;;;20.50;13.50;;;;;;;1.50;97.60;102034.15;107062;1257;61253;-79
2023/02/15 06:41:23;;;;;;;21.70;14.50;;;;;;;1.52;97.60;102032.84;107020;1257;61174;-78
2023/02/15 06:43:50;;;;;;;20.60;13.90;;;;;;;1.53;97.20;102030.69;107157;1257;73155;-79
2023/02/15 06:46:17;;;;;;;19.70;13.20;;;;;;;1.53;97.15;102025.77;107025;1257;69077;-78
2023/02/15 06:48:44;;;;;;;20.10;12.60;;;;;;;1.53;96.92;102024.91;106875;1258;73078;-79
2023/02/15 06:51:11;;;;;;;19.40;12.80;;;;;;;1.52;96.76;102023.23;106896;1257;61338;-77
2023/02/15 06:53:40;;;;;;;18.40;12.90;;;;;;;1.52;96.51;102025.29;107132;1255;61199;-78
2023/02/15 06:56:10;;;;;;;18.50;11.80;;;;;;;1.52;96.15;102020.09;107070;1256;73493;-79
2023/02/15 06:58:40;;;;;;;18.00;12.30;;;;;;;1.54;96.19;102016.83;106597;1256;70533;-78
2023/02/15 07:01:08;;;;;;;16.50;11.10;;;;;;;1.56;96.02;102021.98;107429;1255;72777;-82
2023/02/15 07:03:35;;;;;;;16.50;11.00;;;;;;;1.59;95.99;102021.48;107274;1255;61312;-78
2023/02/15 07:06:05;;;;;;;16.80;11.70;;;;;;;1.62;95.81;102018.51;107027;1255;61150;-78
2023/02/15 07:08:37;;;;;;;17.40;11.60;;;;;;;1.65;95.73;102015.19;107209;1255;73530;-77
2023/02/15 07:13:55;;;;;;;16.40;11.10;;;;;;;1.69;95.02;102013.59;107018;1255;74160;-78
2023/02/15 07:16:22;;;;;;;15.90;11.60;;;;;;;1.73;95.18;102013.73;107447;1257;61202;-78
2023/02/15 07:18:49;;;;;;;18.00;12.40;;;;;;;1.76;94.94;102017.55;107900;1256;61110;-76
2023/02/15 07:21:17;;;;;;;18.20;11.20;;;;;;;1.79;94.61;102020.20;107293;1255;72223;-77
2023/02/15 07:23:44;;;;;;;17.40;10.70;;;;;;;1.82;94.44;102023.14;106895;1256;70005;-77
2023/02/15 07:26:10;;;;;;;16.10;11.10;;;;;;;1.86;94.57;102022.43;106996;1255;71427;-76
2023/02/15 07:28:37;;;;;;;16.10;11.10;;;;;;;1.89;94.41;102023.64;106800;1256;61269;-76
2023/02/15 07:31:05;;;;;;;15.20;10.30;;;;;;;1.91;93.72;102026.50;106601;1256;61147;-76
2023/02/15 07:33:33;;;;;;;15.00;11.00;;;;;;;1.89;93.34;102020.17;106507;1255;73546;-77
2023/02/15 07:36:02;;;;;;;14.00;10.30;;;;;;;1.88;93.21;102024.59;106723;1256;70881;-76
2023/02/15 07:38:36;;;;;;;16.50;11.00;;;;;;;1.85;92.79;102025.78;106784;1255;73497;-77
2023/02/15 07:41:11;;;;;;;15.30;11.10;;;;;;;1.85;92.86;102021.78;106717;1255;61263;-80
2023/02/15 07:43:41;;;;;;;14.70;10.40;;;;;;;1.86;92.82;102021.34;107156;1255;61209;-79
2023/02/15 07:46:13;;;;;;;14.50;10.30;;;;;;;1.87;92.51;102024.80;106598;1258;75339;-78
2023/02/15 07:48:41;;;;;;;14.30;10.00;;;;;;;1.89;92.37;102028.68;106710;1256;71269;-76
2023/02/15 07:51:10;;;;;;;15.40;10.40;;;;;;;1.93;92.45;102027.59;106611;1257;73255;-76
2023/02/15 07:53:38;;;;;;;13.70;9.70;;;;;;;1.97;92.00;102026.17;106473;1263;61829;-76
2023/02/15 07:56:09;;;;;;;13.20;9.70;;;;;;;2.01;91.77;102029.25;106877;1260;61183;-76
2023/02/15 07:58:52;;;;;;;15.00;10.00;;;;;;;2.07;91.45;102029.46;106428;1255;73543;-79
2023/02/15 08:01:26;;;;;;;14.80;9.80;;;;;;;2.12;91.30;102030.01;106977;1255;71213;-75
2023/02/15 08:03:54;;;;;;;12.90;8.90;;;;;;;2.17;90.97;102027.13;106687;1257;72477;-79
2023/02/15 08:06:23;;;;;;;13.60;9.30;;;;;;;2.22;90.67;102026.84;106591;1255;61395;-78
2023/02/15 08:08:50;;;;;;;12.20;9.10;;;;;;;2.28;90.99;102021.43;106754;1260;61506;-78
2023/02/15 08:11:25;;;;;;;13.50;9.90;;;;;;;2.35;90.77;102019.96;106778;1257;72314;-78
2023/02/15 08:14:03;;;;;;;13.20;9.50;;;;;;;2.43;90.61;102010.25;106971;1257;72258;-77
2023/02/15 08:16:43;;;;;;;14.80;9.40;;;;;;;2.54;90.61;102008.39;106676;1255;73975;-78
2023/02/15 08:19:20;;;;;;;13.00;9.70;;;;;;;2.62;90.61;102007.03;107246;1256;61551;-75
2023/02/15 08:21:49;;;;;;;13.30;9.80;;;;;;;2.72;90.47;101998.27;106412;1263;61454;-76
2023/02/15 08:24:18;;;;;;;11.80;8.50;;;;;;;2.81;90.40;101992.80;106803;1255;73490;-77
2023/02/15 08:26:47;;;;;;;13.20;9.70;;;;;;;2.88;89.89;101988.70;106460;1257;69909;-75
2023/02/15 08:29:16;;;;;;;13.80;9.80;;;;;;;2.93;88.84;101991.75;106935;1256;71484;-76
2023/02/15 08:31:42;;;;;;;13.00;9.30;;;;;;;2.95;88.17;101990.07;107284;1255;62643;-75
2023/02/15 08:34:11;;;;;;;13.20;9.60;;;;;;;2.99;88.20;101987.88;106774;1256;61154;-75
2023/02/15 08:36:38;;;;;;;14.50;9.60;;;;;;;3.05;87.99;101987.17;106673;1255;73835;-77
2023/02/15 08:39:05;;;;;;;12.70;9.20;;;;;;;3.11;87.64;101982.27;106683;1256;69516;-76
2023/02/15 08:41:35;;;;;;;14.70;9.90;;;;;;;3.20;88.00;101980.66;106758;1255;71889;-76
2023/02/15 08:44:05;;;;;;;13.00;9.50;;;;;;;3.30;87.95;101988.08;106703;1257;61344;-76
2023/02/15 08:46:35;;;;;;;14.20;9.50;;;;;;;3.40;87.19;101985.85;106952;1256;60072;-78
2023/02/15 08:49:02;;;;;;;12.90;9.00;;;;;;;3.51;87.01;101978.55;106712;1255;74648;-76
2023/02/15 08:51:31;;;;;;;12.70;9.00;;;;;;;3.61;86.64;101973.20;106741;1255;70930;-77
2023/02/15 08:54:02;;;;;;;13.00;8.60;;;;;;;3.69;85.83;101970.55;106605;1257;73401;-75
2023/02/15 08:56:33;;;;;;;11.80;8.40;;;;;;;3.76;85.30;101969.23;106579;1256;61919;-76
2023/02/15 08:59:01;;;;;;;12.10;8.40;;;;;;;3.81;84.55;101966.13;107540;1257;61217;-75
2023/02/15 09:01:30;;;;;;;13.00;8.90;;;;;;;3.85;84.21;101960.64;107133;1255;73519;-75
2023/02/15 09:04:08;;;;;;;12.70;8.30;;;;;;;3.94;84.55;101960.74;108583;1257;72361;-75
2023/02/15 09:06:39;;;;;;;11.70;8.10;;;;;;;3.97;83.62;101962.45;107611;1255;71490;-74
2023/02/15 09:09:07;;;;;;;11.60;8.40;;;;;;;4.02;83.64;101962.48;107210;1255;61257;-75
2023/02/15 09:11:39;;;;;;;11.50;8.30;;;;;;;4.06;83.08;101958.68;107139;1255;61390;-77
2023/02/15 09:14:09;;;;;;;11.90;8.90;;;;;;;4.13;82.81;101960.54;106930;1255;75571;-77
2023/02/15 09:16:37;;;;;;;12.80;8.50;;;;;;;4.18;82.36;101962.67;107004;1257;71207;-77
2023/02/15 09:19:05;;;;;;;12.30;8.70;;;;;;;4.25;82.25;101964.84;107147;1255;71421;-80
2023/02/15 09:21:35;;;;;;;12.80;8.80;;;;;;;4.30;81.92;101964.79;107285;1256;61377;-76
2023/02/15 09:24:04;;;;;;;12.50;8.80;;;;;;;4.39;81.66;101965.80;107299;1257;61377;-76
2023/02/15 09:26:34;;;;;;;12.20;9.30;;;;;;;4.49;82.14;101961.41;107103;1256;74056;-75
2023/02/15 09:29:03;;;;;;;12.30;9.20;;;;;;;4.62;82.13;101964.75;107033;1257;69077;-75
2023/02/15 09:31:32;;;;;;;12.10;8.90;;;;;;;4.72;81.40;101966.92;106937;1258;72599;-74
2023/02/15 09:34:03;;;;;;;12.30;8.30;;;;;;;4.77;80.46;101968.61;106636;1260;60633;-76
2023/02/15 09:36:37;;;;;;;11.10;7.60;;;;;;;4.74;78.66;101965.52;106927;1258;60368;-76
2023/02/15 09:39:07;;;;;;;11.10;7.80;;;;;;;4.73;78.38;101962.93;107083;1255;73532;-75
2023/02/15 09:41:56;;;;;;;11.40;7.50;;;;;;;4.74;78.25;101965.56;106774;1256;70919;-76
2023/02/15 09:44:54;;;;;;;10.50;7.90;;;;;;;4.79;78.52;101967.81;106763;1258;72665;-75
2023/02/15 09:47:48;;;;;;;11.40;7.70;;;;;;;4.87;78.62;101962.80;106817;1255;61293;-74
2023/02/15 09:50:59;;;;;;;10.90;7.40;;;;;;;4.97;78.19;101963.05;106773;1259;61175;-76
2023/02/15 09:53:55;;;;;;;11.00;7.90;;;;;;;5.04;77.56;101962.04;106480;1258;73784;-77
2023/02/15 09:56:31;;;;;;;10.90;7.30;;;;;;;5.11;77.44;101958.89;107000;1255;72211;-77
2023/02/15 09:59:09;;;;;;;10.90;8.00;;;;;;;5.19;76.97;101961.13;106856;1256;74300;-75
2023/02/15 10:02:24;;;;;;;11.20;7.80;;;;;;;5.21;76.49;101960.47;106803;1257;61221;-76
2023/02/15 10:05:10;;;;;;;10.80;8.30;;;;;;;5.30;77.11;101959.19;106781;1255;61479;-77
2023/02/15 10:08:24;;;;;;;10.90;7.90;;;;;;;5.41;76.86;101951.70;106714;1261;76278;-77
2023/02/15 10:11:38;;;;;;;10.40;7.60;;;;;;;5.48;76.05;101952.11;106756;1256;72173;-77
2023/02/15 10:14:16;;;;;;;11.50;8.40;;;;;;;5.52;76.16;101949.69;106801;1257;70447;-77
2023/02/15 10:17:05;;;;;;;10.50;7.70;;;;;;;5.61;76.19;101950.05;107171;1258;61264;-78
2023/02/15 10:20:07;;;;;;;10.30;7.80;;;;;;;5.69;75.77;101957.89;106754;1255;61220;-78
2023/02/15 10:23:06;;;;;;;10.50;7.80;;;;;;;5.77;75.35;101952.09;106656;1259;74677;-75
2023/02/15 10:25:38;;;;;;;11.00;8.00;;;;;;;5.86;75.11;101946.67;106994;1255;69724;-75
2023/02/15 10:28:13;;;;;;;12.30;8.50;;;;;;;5.97;74.54;101948.86;106477;1258;72690;-74
2023/02/15 10:30:50;;;;;;;11.30;7.60;;;;;;;6.07;74.71;101943.71;106546;1255;61343;-74
2023/02/15 10:33:40;;;;;;;11.00;7.40;;;;;;;6.24;75.13;101946.52;106644;1255;61351;-75
2023/02/15 10:36:23;;;;;;;14.50;7.40;;;;;;;6.37;73.18;101948.19;106972;1256;75847;-75
2023/02/15 10:39:11;;;;;;;10.40;7.50;;;;;;;6.42;72.27;101947.46;106701;1256;69624;-76
2023/02/15 10:41:50;;;;;;;10.50;7.30;;;;;;;6.47;72.01;101948.48;106649;1260;72543;-76
2023/02/15 10:44:23;;;;;;;10.00;7.60;;;;;;;6.57;72.50;101944.73;106905;1260;61264;-76
2023/02/15 10:47:24;;;;;;;11.80;7.80;;;;;;;6.65;71.57;101942.73;106841;1255;61237;-78
2023/02/15 10:50:06;;;;;;;11.00;8.00;;;;;;;6.78;72.17;101945.55;106585;1257;73284;-75
2023/02/15 10:53:04;;;;;;;10.20;7.10;;;;;;;6.85;70.90;101944.67;107159;1255;70332;-74
2023/02/15 10:55:50;;;;;;;11.10;8.00;;;;;;;6.97;71.15;101943.73;106541;1260;73977;-74
2023/02/15 10:58:29;;;;;;;10.80;7.70;;;;;;;7.07;70.67;101941.92;106624;1255;61239;-77
2023/02/15 11:01:21;;;;;;;13.40;8.40;;;;;;;7.16;70.15;101941.20;106839;1255;61243;-75
2023/02/15 11:04:30;;;;;;;11.70;7.70;;;;;;;7.28;70.20;101941.08;106352;1257;72651;-76
2023/02/15 11:07:02;;;;;;;12.40;8.70;;;;;;;7.41;70.79;101935.35;106805;1257;70903;-76
2023/02/15 11:09:42;;;;;;;11.90;8.50;;;;;;;7.51;70.62;101933.61;106474;1258;71320;-76
2023/02/15 11:12:24;;;;;;;11.40;7.70;;;;;;;7.64;70.34;101927.48;107263;1255;62916;-77
2023/02/15 11:15:39;;;;;;;10.70;8.00;;;;;;;7.72;69.50;101924.33;106834;1259;62201;-76
2023/02/15 11:18:12;;;;;;;10.90;7.60;;;;;;;7.78;69.27;101923.14;106542;1260;74492;-76
2023/02/15 11:20:54;;;;;;;10.90;7.70;;;;;;;7.88;69.33;101915.77;106761;1258;71218;-76
2023/02/15 11:23:21;;;;;;;11.30;8.00;;;;;;;7.94;68.90;101910.36;106791;1255;73882;-75
2023/02/15 11:25:57;;;;;;;9.80;7.50;;;;;;;7.98;68.68;101909.16;106922;1260;62116;-79
2023/02/15 11:28:34;;;;;;;9.60;7.30;;;;;;;8.04;68.54;101900.40;106921;1259;61177;-75
2023/02/15 11:31:20;;;;;;;10.50;7.90;;;;;;;8.06;67.68;101899.30;106498;1256;73134;-77
2023/02/15 11:33:56;;;;;;;10.50;8.10;;;;;;;8.12;67.67;101899.01;106407;1257;70104;-77
2023/02/15 11:36:31;;;;;;;12.10;8.50;;;;;;;8.08;67.10;101900.70;106663;1258;71206;-78
2023/02/15 11:39:04;;;;;;;10.90;7.90;;;;;;;8.04;66.93;101901.06;106643;1255;61779;-78
2023/02/15 11:41:37;;;;;;;11.80;8.40;;;;;;;8.08;67.81;101901.65;106523;1255;61873;-78
2023/02/15 11:44:19;;;;;;;10.60;8.10;;;;;;;8.20;68.08;101900.96;107185;1255;73470;-76
2023/02/15 11:46:45;;;;;;;11.30;8.10;;;;;;;8.38;67.07;101902.63;106574;1260;71047;-79
2023/02/15 11:49:23;;;;;;;10.30;7.00;;;;;;;8.48;65.47;101906.77;106714;1258;73361;-77
2023/02/15 11:51:51;;;;;;;11.70;8.30;;;;;;;8.61;66.11;101905.93;106539;1255;61610;-78
2023/02/15 11:54:25;;;;;;;11.10;8.60;;;;;;;8.85;65.68;101896.00;106479;1257;61282;-78
2023/02/15 11:56:53;;;;;;;11.70;8.90;;;;;;;9.17;63.90;101891.77;106794;1257;75841;-78
2023/02/15 11:59:36;;;;;;;12.50;8.70;;;;;;;9.51;63.15;101882.11;106738;1257;70964;-78
2023/02/15 12:02:14;;;;;;;12.90;9.00;;;;;;;10.11;62.56;101882.32;106569;1258;72894;-78
2023/02/15 12:04:46;;;;;;;10.50;8.40;;;;;;;10.65;60.57;101880.28;106884;1257;61227;-79